Terminal Aerodrome Forecast
Issued by NWS

Home | Current Version | Previous Version | Text Only | Print | Product List | Glossary On
Versions: 1 2 3 4 5 6 7 8 9 10 11 12 13 14 15 16 17
000
FTUS45 KBOU 110534
TAFAPA
TAF
KAPA 110534Z 1106/1206 19007KT P6SM SCT220
     FM111800 09007KT P6SM FEW120
     FM120200 18007KT P6SM FEW120 BKN220=

USA.gov is the U.S. government's official web portal to all federal, state and local government web resources and services.